Time;durP1;ratioP1;P1;durP2;ratioP2;P2;SDS_P1;SDS_P2;PMS_P1;PMS_P2;Temp;Humidity;BMP_temperature;BMP_pressure;BME280_temperature;BME280_humidity;BME280_pressure;Samples;Min_cycle;Max_cycle;Signal;HPM_P1;HPM_P2
2022/09/29 00:07:50;;;;;;;1999.90;999.90;;;8.20;99.90;;;;;;6648986;77;20669;-80
2022/09/29 00:17:51;;;;;;;1999.90;999.90;;;8.20;99.90;;;;;;6656877;88;20190;-79
2022/09/29 00:27:51;;;;;;;1999.90;999.90;;;8.20;99.90;;;;;;6655921;89;20236;-79
2022/09/29 00:37:52;;;;;;;1999.90;999.90;;;7.90;99.90;;;;;;6656313;89;20233;-79
2022/09/29 00:48:04;;;;;;;1999.90;999.90;;;7.70;99.90;;;;;;6653079;89;20721;-78
2022/09/29 00:58:28;;;;;;;1999.90;999.90;;;7.50;99.90;;;;;;6656074;88;20188;-79
2022/09/29 01:08:51;;;;;;;1999.90;999.90;;;7.50;99.90;;;;;;6656179;88;20197;-79
2022/09/29 01:18:52;;;;;;;1999.90;999.90;;;7.50;99.90;;;;;;6656026;88;20650;-78
2022/09/29 01:29:10;;;;;;;1999.90;999.90;;;7.50;99.90;;;;;;6656445;89;20647;-79
2022/09/29 01:39:39;;;;;;;1999.90;999.90;;;7.50;99.90;;;;;;6660637;88;20195;-79
2022/09/29 01:49:44;;;;;;;1999.90;999.90;;;7.20;99.90;;;;;;6652898;88;20200;-78
2022/09/29 01:59:51;;;;;;;1999.90;999.90;;;7.20;99.90;;;;;;6656093;88;20175;-78
2022/09/29 02:10:05;;;;;;;1999.90;999.90;;;7.20;99.90;;;;;;6655330;88;20203;-79
2022/09/29 02:20:06;;;;;;;1999.90;999.90;;;7.20;99.90;;;;;;6655146;88;20300;-79
2022/09/29 02:30:08;;;;;;;1999.90;999.90;;;7.20;99.90;;;;;;6656004;89;20192;-78
2022/09/29 02:40:20;;;;;;;1999.90;999.90;;;7.10;99.90;;;;;;6655283;89;20205;-79
2022/09/29 02:50:33;;;;;;;1999.90;999.90;;;6.90;99.90;;;;;;6655578;88;20339;-78
2022/09/29 03:00:34;;;;;;;1999.90;999.90;;;6.80;99.90;;;;;;6656817;88;20670;-78
2022/09/29 03:10:34;;;;;;;1999.90;999.90;;;6.80;99.90;;;;;;6654703;88;20234;-79
2022/09/29 03:20:35;;;;;;;1999.90;999.90;;;6.70;99.90;;;;;;6653923;89;20207;-78
2022/09/29 03:30:35;;;;;;;1999.90;999.90;;;6.60;99.90;;;;;;6649537;89;20228;-79
2022/09/29 03:40:36;;;;;;;1999.90;999.90;;;6.60;99.90;;;;;;6654942;89;20666;-79
2022/09/29 03:50:36;;;;;;;1999.90;999.90;;;6.40;99.90;;;;;;6654480;89;20217;-78
2022/09/29 04:00:37;;;;;;;1999.90;999.90;;;6.20;99.90;;;;;;6650563;89;20274;-79
2022/09/29 04:10:38;;;;;;;1999.90;999.90;;;6.20;99.90;;;;;;6657613;89;20251;-78
2022/09/29 04:20:38;;;;;;;1999.90;999.90;;;6.20;99.90;;;;;;6656940;89;20762;-78
2022/09/29 04:30:39;;;;;;;1999.90;999.90;;;6.20;99.90;;;;;;6656634;88;20324;-78
2022/09/29 04:40:40;;;;;;;1999.90;999.90;;;6.20;99.90;;;;;;6656186;89;20303;-77
2022/09/29 04:50:41;;;;;;;1999.90;999.90;;;6.20;99.90;;;;;;6656298;89;20220;-79
2022/09/29 05:00:42;;;;;;;1999.90;999.90;;;6.10;99.90;;;;;;6657329;88;20228;-79
2022/09/29 05:10:46;;;;;;;1999.90;999.90;;;6.00;99.90;;;;;;6658395;88;20281;-79
2022/09/29 05:20:47;;;;;;;1999.90;999.90;;;6.00;99.90;;;;;;6658813;89;20658;-78
2022/09/29 05:30:47;;;;;;;1999.90;999.90;;;6.10;99.90;;;;;;6658605;89;20203;-79
2022/09/29 05:40:51;;;;;;;1999.90;999.90;;;6.00;99.90;;;;;;6652521;88;20193;-81
2022/09/29 05:50:52;;;;;;;1999.90;999.90;;;6.00;99.90;;;;;;6658613;89;20236;-80
2022/09/29 06:11:02;;;;;;;1999.90;999.90;;;6.30;99.90;;;;;;6705321;88;20234;-78
2022/09/29 06:21:06;;;;;;;1999.90;999.90;;;6.20;99.90;;;;;;6720597;88;20267;-78
2022/09/29 06:31:10;;;;;;;1999.90;999.90;;;6.20;99.90;;;;;;6724553;88;20245;-79
2022/09/29 06:41:10;;;;;;;1999.90;999.90;;;6.30;99.90;;;;;;6731912;88;20749;-80
2022/09/29 06:51:13;;;;;;;1999.90;999.90;;;6.30;99.90;;;;;;6730351;88;20246;-79
2022/09/29 07:01:13;;;;;;;1999.90;999.90;;;6.50;99.90;;;;;;6731462;88;20269;-79
2022/09/29 07:11:15;;;;;;;1999.90;999.90;;;6.50;99.90;;;;;;6726908;88;20198;-78
2022/09/29 07:21:20;;;;;;;1999.90;999.90;;;6.80;99.90;;;;;;6729832;88;20284;-78
2022/09/29 07:31:21;;;;;;;1999.90;999.90;;;6.90;99.90;;;;;;6706336;88;20298;-79
2022/09/29 07:41:22;;;;;;;1999.90;999.90;;;7.10;99.90;;;;;;6713728;88;20187;-81
2022/09/29 07:51:23;;;;;;;1999.90;999.90;;;7.20;99.90;;;;;;6710612;88;20216;-82
2022/09/29 08:01:24;;;;;;;1999.90;999.90;;;7.10;99.90;;;;;;6710065;88;20178;-81
2022/09/29 08:11:24;;;;;;;1999.90;999.90;;;7.30;99.90;;;;;;6703356;88;20209;-80
2022/09/29 08:21:26;;;;;;;1999.90;999.90;;;7.90;99.90;;;;;;6702577;88;20247;-80
2022/09/29 08:31:26;;;;;;;1999.90;999.90;;;8.50;99.90;;;;;;6695571;88;20262;-79
2022/09/29 08:41:27;;;;;;;1999.90;999.90;;;9.20;99.90;;;;;;6700984;88;20259;-80
2022/09/29 08:51:33;;;;;;;1999.90;999.90;;;9.80;99.90;;;;;;6699576;88;20200;-79
2022/09/29 09:01:56;;;;;;;1999.90;999.90;;;10.60;99.90;;;;;;6702215;88;20180;-81
2022/09/29 10:17:05;;;;;;;1999.90;999.90;;;13.40;99.90;;;;;;6633477;89;20200;-78
2022/09/29 10:27:07;;;;;;;1999.90;999.90;;;14.30;99.90;;;;;;6663728;89;20196;-78
2022/09/29 10:37:23;;;;;;;1999.90;999.90;;;16.20;99.90;;;;;;6694014;88;20194;-76
2022/09/29 10:47:23;;;;;;;1999.90;999.90;;;17.20;99.90;;;;;;6692436;88;20227;-76
2022/09/29 10:57:26;;;;;;;1999.90;999.90;;;16.30;99.90;;;;;;6643727;88;20266;-76
2022/09/29 11:07:27;;;;;;;1999.90;999.90;;;19.00;99.90;;;;;;6642398;89;20319;-77
2022/09/29 11:17:36;;;;;;;1999.90;999.90;;;18.50;99.90;;;;;;6638974;88;20236;-75
2022/09/29 11:27:59;;;;;;;1999.90;999.90;;;17.20;99.90;;;;;;6644970;89;20204;-76
2022/09/29 11:38:24;;;;;;;1999.90;999.90;;;17.50;99.90;;;;;;6633594;88;20782;-76
2022/09/29 11:48:44;;;;;;;1999.90;999.90;;;18.20;99.90;;;;;;6637367;88;20216;-76
2022/09/29 11:59:17;;;;;;;1999.90;999.90;;;20.30;99.90;;;;;;6641601;89;20680;-78
2022/09/29 12:09:26;;;;;;;1999.90;999.90;;;21.00;99.00;;;;;;6634397;88;20855;-77
2022/09/29 12:19:30;;;;;;;1999.90;999.90;;;20.50;99.10;;;;;;6643108;89;20204;-80
2022/09/29 12:29:37;;;;;;;1999.90;999.90;;;22.50;96.90;;;;;;6639706;89;20193;-78
2022/09/29 12:39:46;;;;;;;1999.90;999.90;;;23.50;95.60;;;;;;6632708;89;20671;-77
2022/09/29 12:50:00;;;;;;;1999.90;999.90;;;22.90;93.60;;;;;;6638735;89;20200;-77
2022/09/29 13:00:07;;;;;;;1999.90;999.90;;;20.30;95.10;;;;;;6642930;88;20640;-76
2022/09/29 13:10:38;;;;;;;1999.90;999.90;;;19.30;97.70;;;;;;6644418;89;20184;-76
2022/09/29 13:21:10;;;;;;;1999.90;999.90;;;20.20;97.40;;;;;;6641594;89;20351;-76
2022/09/29 13:31:15;;;;;;;1999.90;999.90;;;21.30;98.40;;;;;;6636580;89;20373;-76
2022/09/29 13:41:21;;;;;;;1999.90;999.90;;;20.80;99.00;;;;;;6638953;88;20208;-77
2022/09/29 13:51:27;;;;;;;1999.90;999.90;;;21.30;98.30;;;;;;6655150;88;20207;-77
2022/09/29 14:01:35;;;;;;;1999.90;999.90;;;22.30;96.30;;;;;;6636199;89;20324;-76
2022/09/29 14:11:50;;;;;;;1999.90;999.90;;;20.10;96.90;;;;;;6637440;89;20223;-76
2022/09/29 14:21:56;;;;;;;1999.90;999.90;;;20.10;97.70;;;;;;6641426;89;20229;-78
2022/09/29 14:31:58;;;;;;;1999.90;999.90;;;18.60;99.10;;;;;;6638621;89;20221;-78
2022/09/29 14:41:59;;;;;;;1999.90;999.90;;;18.50;98.30;;;;;;6640375;88;20246;-76
2022/09/29 14:52:28;;;;;;;1999.90;999.90;;;17.50;99.80;;;;;;6635884;89;20257;-76
2022/09/29 15:02:36;;;;;;;1999.90;999.90;;;17.20;99.90;;;;;;6639538;89;20798;-75
2022/09/29 15:12:37;;;;;;;1999.90;999.90;;;17.20;99.60;;;;;;6638870;89;20180;-77
2022/09/29 15:22:54;;;;;;;1999.90;999.90;;;17.30;99.90;;;;;;6653556;89;20712;-75
2022/09/29 15:33:23;;;;;;;1999.90;999.90;;;17.40;99.80;;;;;;6649911;89;20184;-75
2022/09/29 15:43:27;;;;;;;1999.90;999.90;;;16.30;99.90;;;;;;6675374;88;20172;-74
2022/09/29 15:53:28;;;;;;;1999.90;999.90;;;15.60;99.90;;;;;;6643903;89;20185;-75
2022/09/29 16:03:38;;;;;;;1999.90;999.90;;;15.40;99.90;;;;;;6635989;89;20242;-75
2022/09/29 16:13:40;;;;;;;1999.90;999.90;;;15.00;99.90;;;;;;6641433;89;20687;-75
2022/09/29 16:23:49;;;;;;;1999.90;999.90;;;14.80;99.90;;;;;;6638288;89;20328;-76
2022/09/29 16:33:55;;;;;;;1999.90;999.90;;;14.30;99.90;;;;;;6649450;89;20187;-76
2022/09/29 16:44:15;;;;;;;1999.90;999.90;;;14.10;99.90;;;;;;6651127;88;20711;-78
2022/09/29 16:54:30;;;;;;;1999.90;999.90;;;13.70;99.90;;;;;;6643867;89;20177;-78
2022/09/29 17:04:32;;;;;;;;;;;13.50;99.90;;;;;;6647842;89;20745;-77
2022/09/29 17:14:32;;;;;;;1999.90;999.90;;;13.10;99.90;;;;;;6641023;89;20104;-77
2022/09/29 17:24:33;;;;;;;1999.90;999.90;;;12.80;99.90;;;;;;6659712;89;20254;-77
2022/09/29 17:34:34;;;;;;;1999.90;999.90;;;12.70;99.90;;;;;;6655301;89;20221;-78
2022/09/29 17:44:38;;;;;;;1999.90;999.90;;;12.60;99.90;;;;;;6652741;89;20207;-77
2022/09/29 17:54:38;;;;;;;1999.90;999.90;;;12.40;99.90;;;;;;6660361;89;20207;-78
2022/09/29 18:04:44;;;;;;;1999.90;999.90;;;12.20;99.90;;;;;;6656487;89;20210;-76
2022/09/29 18:14:44;;;;;;;1999.90;999.90;;;12.10;99.90;;;;;;6652277;88;20621;-76
2022/09/29 18:24:45;;;;;;;1999.90;999.90;;;11.70;99.90;;;;;;6646735;89;20183;-77
2022/09/29 18:34:45;;;;;;;1999.90;999.90;;;11.30;99.90;;;;;;6654881;88;20214;-78
2022/09/29 18:44:46;;;;;;;1999.90;999.90;;;11.20;99.90;;;;;;6661169;88;20196;-78
2022/09/29 18:54:47;;;;;;;1999.90;999.90;;;11.10;99.90;;;;;;6679346;88;20185;-77
2022/09/29 19:04:47;;;;;;;1999.90;999.90;;;11.00;99.90;;;;;;6672127;88;20185;-77
2022/09/29 19:14:48;;;;;;;1999.90;999.90;;;10.80;99.90;;;;;;6655895;88;20208;-77
2022/09/29 19:24:49;;;;;;;1999.90;999.90;;;10.50;99.90;;;;;;6628014;89;20267;-75
2022/09/29 19:34:52;;;;;;;1999.90;999.90;;;10.30;99.90;;;;;;6630286;89;20362;-77
2022/09/29 19:44:53;;;;;;;1999.90;999.90;;;10.30;99.90;;;;;;6628387;89;20350;-78
2022/09/29 19:54:53;;;;;;;1999.90;999.90;;;10.00;99.90;;;;;;6628429;89;20359;-77
2022/09/29 20:04:55;;;;;;;1999.90;999.90;;;9.80;99.90;;;;;;6629053;89;20204;-79
2022/09/29 20:14:55;;;;;;;1999.90;999.90;;;9.80;99.90;;;;;;6638536;89;20198;-77
2022/09/29 20:24:57;;;;;;;1999.90;999.90;;;9.70;99.90;;;;;;6628798;89;20243;-79
2022/09/29 20:34:57;;;;;;;1999.90;999.90;;;9.40;99.90;;;;;;6627844;89;20177;-77
2022/09/29 20:44:58;;;;;;;1999.90;999.90;;;9.40;99.90;;;;;;6623003;89;20946;-78
2022/09/29 20:54:59;;;;;;;1999.90;999.90;;;9.60;99.90;;;;;;6641941;89;20216;-76
2022/09/29 21:05:00;;;;;;;1999.90;999.90;;;9.40;99.90;;;;;;6629055;89;20225;-78
2022/09/29 21:15:01;;;;;;;1999.90;999.90;;;9.50;99.90;;;;;;6632605;89;20201;-78
2022/09/29 21:25:01;;;;;;;1999.90;999.90;;;9.50;99.90;;;;;;6634729;89;20197;-76
2022/09/29 21:46:06;;;;;;;1999.90;999.90;;;9.40;99.90;;;;;;6650169;89;21170;-81
2022/09/29 21:56:11;;;;;;;1999.90;999.90;;;9.40;99.90;;;;;;6659324;89;20197;-78
2022/09/29 22:06:14;;;;;;;1999.90;999.90;;;9.50;99.90;;;;;;6652713;89;20177;-78
2022/09/29 22:16:16;;;;;;;1999.90;999.90;;;9.50;99.90;;;;;;6653011;89;20657;-77
2022/09/29 22:26:17;;;;;;;1999.90;999.90;;;9.20;99.90;;;;;;6654381;89;20209;-79
2022/09/29 22:36:17;;;;;;;1999.90;999.90;;;9.10;99.90;;;;;;6654834;89;20208;-79
2022/09/29 22:46:20;;;;;;;1999.90;999.90;;;9.10;99.90;;;;;;6646273;89;20725;-77
2022/09/29 22:56:27;;;;;;;1999.90;999.90;;;9.00;99.90;;;;;;6653427;89;20219;-77
2022/09/29 23:06:27;;;;;;;1999.90;999.90;;;8.90;99.90;;;;;;6652401;89;20291;-78
2022/09/29 23:16:28;;;;;;;1999.90;999.90;;;8.60;99.90;;;;;;6653296;89;20293;-78
2022/09/29 23:26:29;;;;;;;1999.90;999.90;;;8.50;99.90;;;;;;6649731;89;20204;-78
2022/09/29 23:36:30;;;;;;;1999.90;999.90;;;8.30;99.90;;;;;;6650340;89;20229;-78
2022/09/29 23:46:33;;;;;;;1999.90;999.90;;;8.40;99.90;;;;;;6648477;89;20228;-78
2022/09/29 23:56:34;;;;;;;1999.90;999.90;;;8.10;99.90;;;;;;6645043;89;20197;-78
